Time;durP1;ratioP1;P1;durP2;ratioP2;P2;SDS_P1;SDS_P2;PMS_P1;PMS_P2;Temp;Humidity;BMP_temperature;BMP_pressure;BME280_temperature;BME280_humidity;BME280_pressure;Samples;Min_cycle;Max_cycle;Signal;HPM_P1;HPM_P2
2022/01/23 00:00:02;;;;;;;18.70;11.02;;;0.40;99.90;;;;;;5059044;28;20036;-69
2022/01/23 00:02:29;;;;;;;19.65;10.93;;;0.40;99.90;;;;;;5058925;28;20083;-69
2022/01/23 00:04:55;;;;;;;16.63;10.02;;;0.40;99.90;;;;;;5058890;28;20048;-69
2022/01/23 00:07:21;;;;;;;16.58;10.52;;;0.40;99.90;;;;;;5076680;28;20057;-70
2022/01/23 00:09:48;;;;;;;16.50;10.02;;;0.40;99.90;;;;;;5076774;28;20092;-70
2022/01/23 00:12:20;;;;;;;18.90;11.82;;;0.40;99.90;;;;;;5058795;28;20033;-70
2022/01/23 00:17:34;;;;;;;16.13;9.95;;;0.40;99.90;;;;;;5076790;28;20443;-70
2022/01/23 00:20:03;;;;;;;16.27;10.48;;;0.40;99.90;;;;;;5076427;28;20098;-70
2022/01/23 00:22:46;;;;;;;14.32;9.43;;;0.30;99.90;;;;;;5076291;28;20032;-70
2022/01/23 00:30:43;;;;;;;16.20;9.80;;;0.30;99.90;;;;;;5076640;28;20043;-70
2022/01/23 00:33:10;;;;;;;15.27;9.30;;;0.30;99.90;;;;;;5076046;28;20510;-70
2022/01/23 00:35:38;;;;;;;15.30;10.38;;;0.30;99.90;;;;;;5076201;28;20040;-70
2022/01/23 00:38:06;;;;;;;18.33;9.88;;;0.30;99.90;;;;;;5058026;28;20033;-70
2022/01/23 00:40:33;;;;;;;15.13;9.55;;;0.30;99.90;;;;;;5076297;28;20041;-70
2022/01/23 00:43:00;;;;;;;14.90;9.40;;;0.20;99.90;;;;;;5075951;28;20103;-70
2022/01/23 00:45:41;;;;;;;13.13;9.02;;;0.20;99.90;;;;;;5075902;28;20037;-70
2022/01/23 00:48:09;;;;;;;15.32;8.90;;;0.20;99.90;;;;;;5076269;28;20055;-70
2022/01/23 00:50:40;;;;;;;14.95;9.27;;;0.20;99.90;;;;;;5057958;28;20404;-69
2022/01/23 00:53:09;;;;;;;16.30;9.63;;;0.20;99.90;;;;;;5076203;28;20403;-70
2022/01/23 00:55:36;;;;;;;13.95;8.50;;;0.20;99.90;;;;;;5075699;28;20067;-70
2022/01/23 00:58:02;;;;;;;17.20;10.38;;;0.20;99.90;;;;;;5075955;28;20492;-70
2022/01/23 01:00:28;;;;;;;16.30;9.75;;;0.20;99.90;;;;;;5057674;28;20082;-70
2022/01/23 01:02:54;;;;;;;16.83;9.43;;;0.20;99.90;;;;;;5075696;28;20040;-69
2022/01/23 01:05:20;;;;;;;17.75;10.25;;;0.20;99.90;;;;;;5076106;28;20040;-69
2022/01/23 01:07:45;;;;;;;14.82;9.55;;;0.20;99.90;;;;;;5075721;28;20036;-70
2022/01/23 01:10:21;;;;;;;13.70;8.75;;;0.20;99.90;;;;;;5075510;28;20097;-70
2022/01/23 01:12:50;;;;;;;14.68;8.63;;;0.20;99.90;;;;;;5075857;28;20024;-70
2022/01/23 01:31:25;;;;;;;16.60;9.75;;;0.30;99.90;;;;;;5075230;28;20040;-70
2022/01/23 01:36:34;;;;;;;14.25;8.73;;;0.30;99.90;;;;;;5075260;28;20052;-70
2022/01/23 01:39:00;;;;;;;16.17;9.30;;;0.30;99.90;;;;;;5075190;28;20024;-70
2022/01/23 01:41:26;;;;;;;16.08;9.63;;;0.30;99.90;;;;;;5074857;28;20036;-70
2022/01/23 01:43:56;;;;;;;16.27;9.52;;;0.30;99.90;;;;;;5074875;28;20050;-71
2022/01/23 01:46:22;;;;;;;14.05;9.27;;;0.30;99.90;;;;;;5074711;28;20029;-70
2022/01/23 01:48:47;;;;;;;15.98;9.52;;;0.30;99.90;;;;;;5074727;28;20400;-70
2022/01/23 01:51:16;;;;;;;15.27;9.38;;;0.30;99.90;;;;;;5075210;28;20038;-70
2022/01/23 01:53:53;;;;;;;15.70;8.70;;;0.30;99.90;;;;;;5074901;28;20082;-70
2022/01/23 01:56:19;;;;;;;16.23;8.95;;;0.20;99.90;;;;;;5074958;28;20108;-70
2022/01/23 02:09:18;;;;;;;14.55;8.77;;;0.20;99.90;;;;;;5074359;28;20039;-70
2022/01/23 02:25:15;;;;;;;16.42;9.55;;;0.20;99.90;;;;;;5074315;28;20457;-70
2022/01/23 02:55:25;;;;;;;17.80;10.40;;;0.20;99.90;;;;;;5028910;28;20028;-68
2022/01/23 02:57:54;;;;;;;16.60;9.18;;;0.20;99.90;;;;;;5073723;28;20131;-68
2022/01/23 03:00:23;;;;;;;16.05;9.57;;;0.20;99.90;;;;;;5073776;28;20028;-68
2022/01/23 03:02:53;;;;;;;15.98;9.45;;;0.20;99.90;;;;;;5073723;28;20028;-68
2022/01/23 03:06:11;;;;;;;15.80;8.60;;;0.20;99.90;;;;;;5073664;28;20054;-68
2022/01/23 03:08:26;;;;;;;15.77;9.00;;;0.20;99.90;;;;;;5071132;28;20020;-68
2022/01/23 03:11:06;;;;;;;15.77;10.05;;;0.20;99.90;;;;;;5073739;28;20078;-68
2022/01/23 03:13:50;;;;;;;15.27;9.75;;;0.20;99.90;;;;;;5073423;28;20024;-68
2022/01/23 03:24:07;;;;;;;21.10;10.82;;;0.20;99.90;;;;;;5073674;28;20469;-68
2022/01/23 03:30:20;;;;;;;16.65;9.75;;;0.20;99.90;;;;;;5073752;28;20040;-68
2022/01/23 03:32:49;;;;;;;20.20;10.77;;;0.20;99.90;;;;;;5073262;28;20036;-68
2022/01/23 03:35:16;;;;;;;16.35;9.77;;;0.20;99.90;;;;;;5073151;28;20032;-68
2022/01/23 03:37:42;;;;;;;16.73;9.95;;;0.20;99.90;;;;;;5073059;28;20033;-68
2022/01/23 03:40:09;;;;;;;16.88;9.85;;;0.20;99.90;;;;;;5055152;28;20039;-68
2022/01/23 03:42:37;;;;;;;14.77;8.85;;;0.30;99.90;;;;;;5072878;28;20055;-68
2022/01/23 03:50:32;;;;;;;13.52;8.15;;;0.20;99.90;;;;;;5073104;28;20420;-68
2022/01/23 03:52:58;;;;;;;12.57;7.28;;;0.20;99.90;;;;;;5072951;28;20033;-68
2022/01/23 03:55:24;;;;;;;14.25;8.25;;;0.20;99.90;;;;;;5072986;28;20047;-68
2022/01/23 03:57:49;;;;;;;15.30;8.68;;;0.20;99.90;;;;;;5054893;28;20064;-68
2022/01/23 04:00:17;;;;;;;16.17;8.02;;;0.20;99.90;;;;;;5073125;28;20044;-68
2022/01/23 04:02:43;;;;;;;15.43;8.68;;;0.20;99.90;;;;;;5073155;28;20104;-68
2022/01/23 04:05:09;;;;;;;14.38;8.88;;;0.20;99.90;;;;;;5073115;28;20116;-68
2022/01/23 04:07:36;;;;;;;14.52;8.52;;;0.20;99.90;;;;;;5054886;28;20036;-68
2022/01/23 04:10:03;;;;;;;16.40;10.20;;;0.20;99.90;;;;;;5072825;28;20028;-68
2022/01/23 04:12:53;;;;;;;16.45;9.98;;;0.20;99.90;;;;;;5072866;28;20056;-68
2022/01/23 04:15:38;;;;;;;20.17;10.15;;;0.20;99.90;;;;;;5073070;28;20499;-68
2022/01/23 04:34:35;;;;;;;15.60;8.68;;;0.10;99.90;;;;;;5034226;28;20041;-68
2022/01/23 05:01:22;;;;;;;16.75;9.38;;;0.10;99.90;;;;;;5075906;28;20546;-68
2022/01/23 05:06:29;;;;;;;18.20;9.40;;;0.10;99.90;;;;;;5076070;28;20040;-68
2022/01/23 05:08:55;;;;;;;18.52;9.73;;;0.10;99.90;;;;;;5075574;28;20450;-68
2022/01/23 05:11:21;;;;;;;16.92;10.35;;;0.10;99.90;;;;;;5076383;28;20037;-68
2022/01/23 05:13:47;;;;;;;18.40;10.68;;;0.20;99.90;;;;;;5075502;28;20043;-68
2022/01/23 05:16:14;;;;;;;15.98;9.70;;;0.10;99.90;;;;;;5075279;28;20024;-68
2022/01/23 05:18:40;;;;;;;17.75;10.65;;;0.20;99.90;;;;;;5075264;28;20028;-68
2022/01/23 05:23:43;;;;;;;14.82;8.75;;;0.10;99.90;;;;;;5075868;28;20115;-69
2022/01/23 05:26:08;;;;;;;14.73;8.57;;;0.10;99.90;;;;;;5075422;28;20056;-68
2022/01/23 05:28:34;;;;;;;14.70;8.18;;;0.10;99.90;;;;;;5075451;28;20028;-68
2022/01/23 05:31:00;;;;;;;15.48;8.07;;;0.10;99.90;;;;;;5057081;28;20068;-68
2022/01/23 05:33:25;;;;;;;18.20;9.27;;;0.10;99.90;;;;;;5074845;28;20067;-68
2022/01/23 05:35:51;;;;;;;16.48;9.45;;;0.10;99.90;;;;;;5057012;28;20476;-68
2022/01/23 05:38:17;;;;;;;14.77;8.48;;;0.10;99.90;;;;;;5075212;28;20063;-68
2022/01/23 05:40:43;;;;;;;16.25;8.82;;;0.10;99.90;;;;;;5073991;28;20040;-68
2022/01/23 05:43:09;;;;;;;19.20;10.50;;;0.10;99.90;;;;;;5074550;28;20029;-68
2022/01/23 05:45:37;;;;;;;17.75;9.90;;;0.10;99.90;;;;;;5075337;28;20081;-68
2022/01/23 05:48:03;;;;;;;21.40;11.48;;;0.00;99.90;;;;;;5074651;28;20049;-68
2022/01/23 05:50:29;;;;;;;18.50;10.70;;;0.00;99.90;;;;;;5056791;28;20408;-68
2022/01/23 05:52:55;;;;;;;20.17;10.43;;;0.00;99.90;;;;;;5074637;28;20028;-68
2022/01/23 05:55:21;;;;;;;21.02;10.13;;;0.00;99.90;;;;;;5073491;28;20112;-68
2022/01/23 05:57:47;;;;;;;25.13;14.38;;;0.00;99.90;;;;;;5074485;28;20120;-67
2022/01/23 06:00:13;;;;;;;30.48;16.63;;;-0.10;99.90;;;;;;5074737;28;20111;-68
2022/01/23 06:02:39;;;;;;;29.83;15.43;;;0.00;99.90;;;;;;5075105;28;20044;-68
2022/01/23 06:05:05;;;;;;;29.33;14.63;;;0.00;99.90;;;;;;5074885;28;20504;-67
2022/01/23 06:07:31;;;;;;;25.48;13.48;;;-0.10;99.90;;;;;;5074492;28;20111;-68
2022/01/23 06:09:57;;;;;;;21.70;12.23;;;-0.10;99.90;;;;;;5074439;28;20116;-67
2022/01/23 06:12:24;;;;;;;19.83;10.80;;;-0.10;99.90;;;;;;5074260;28;20060;-67
2022/01/23 06:14:49;;;;;;;21.73;11.48;;;-0.10;99.90;;;;;;5056442;28;20032;-68
2022/01/23 06:17:15;;;;;;;22.50;11.43;;;-0.10;99.90;;;;;;5074667;28;20115;-68
2022/01/23 06:19:41;;;;;;;29.77;13.63;;;0.00;99.90;;;;;;5074079;28;20029;-68
2022/01/23 06:22:07;;;;;;;25.88;13.15;;;0.00;99.90;;;;;;5056288;28;20052;-68
2022/01/23 06:24:33;;;;;;;25.08;12.45;;;0.00;99.90;;;;;;5072883;28;20037;-68
2022/01/23 06:27:01;;;;;;;25.27;12.15;;;0.00;99.90;;;;;;5074222;28;20036;-68
2022/01/23 06:29:30;;;;;;;22.92;11.43;;;0.00;99.90;;;;;;5073941;28;20051;-68
2022/01/23 06:31:58;;;;;;;23.00;11.13;;;0.00;99.90;;;;;;5073609;28;20035;-68
2022/01/23 06:34:24;;;;;;;23.67;11.98;;;0.00;99.90;;;;;;5073959;28;20115;-68
2022/01/23 06:36:52;;;;;;;20.42;10.90;;;0.00;99.90;;;;;;5074141;28;20123;-68
2022/01/23 06:39:19;;;;;;;19.77;10.65;;;0.00;99.90;;;;;;5073856;28;20392;-68
2022/01/23 06:41:45;;;;;;;18.23;10.30;;;0.00;99.90;;;;;;5074144;28;20465;-68
2022/01/23 06:44:11;;;;;;;19.38;10.80;;;0.00;99.90;;;;;;5074188;28;20040;-68
2022/01/23 06:46:39;;;;;;;18.15;10.13;;;0.00;99.90;;;;;;5073893;28;20482;-68
2022/01/23 06:49:06;;;;;;;18.30;9.98;;;0.00;99.90;;;;;;5073706;28;20094;-68
2022/01/23 06:51:32;;;;;;;16.95;9.70;;;0.00;99.90;;;;;;5073922;28;20036;-68
2022/01/23 06:53:58;;;;;;;16.65;9.13;;;0.00;99.90;;;;;;5073495;28;20090;-68
2022/01/23 06:56:24;;;;;;;34.75;17.73;;;0.00;99.90;;;;;;5055555;28;20043;-68
2022/01/23 06:58:50;;;;;;;29.23;17.10;;;0.00;99.90;;;;;;5073493;28;20500;-68
2022/01/23 07:01:15;;;;;;;26.42;14.38;;;0.00;99.90;;;;;;5073787;28;20043;-68
2022/01/23 07:03:41;;;;;;;26.33;13.35;;;0.00;99.90;;;;;;5073473;28;20059;-68
2022/01/23 07:06:07;;;;;;;22.92;12.60;;;0.00;99.90;;;;;;5073474;28;20048;-68
2022/01/23 07:08:34;;;;;;;24.90;13.43;;;0.00;99.90;;;;;;5073733;28;20492;-68
2022/01/23 07:11:00;;;;;;;23.70;12.95;;;0.00;99.90;;;;;;5073435;28;20032;-68
2022/01/23 07:13:26;;;;;;;24.90;13.20;;;0.00;99.90;;;;;;5073436;28;20084;-68
2022/01/23 07:15:52;;;;;;;27.40;13.40;;;0.00;99.90;;;;;;5073336;28;20024;-68
2022/01/23 07:18:18;;;;;;;22.02;12.30;;;0.00;99.90;;;;;;5073618;28;20024;-68
2022/01/23 07:20:45;;;;;;;22.48;12.05;;;0.00;99.90;;;;;;5055328;28;20033;-68
2022/01/23 07:23:11;;;;;;;20.20;10.95;;;0.00;99.90;;;;;;5073331;28;20048;-68
2022/01/23 07:25:38;;;;;;;27.55;14.15;;;0.00;99.90;;;;;;5073241;28;20063;-68
2022/01/23 07:28:06;;;;;;;23.75;13.55;;;0.10;99.90;;;;;;5073160;28;20028;-68
2022/01/23 07:30:39;;;;;;;24.85;13.90;;;0.10;99.90;;;;;;5073484;28;20079;-68
2022/01/23 07:33:05;;;;;;;27.67;13.63;;;0.20;99.90;;;;;;5073239;28;20044;-67
2022/01/23 07:35:32;;;;;;;22.27;11.60;;;0.20;99.90;;;;;;5073191;28;20042;-68
2022/01/23 07:37:58;;;;;;;25.42;13.18;;;0.20;99.90;;;;;;5073004;28;20037;-68
2022/01/23 07:40:24;;;;;;;39.25;19.95;;;0.20;99.90;;;;;;5073083;28;20056;-67
2022/01/23 07:42:50;;;;;;;39.38;20.45;;;0.20;99.90;;;;;;5081886;23;20520;31
2022/01/23 07:45:15;;;;;;;33.67;17.65;;;0.20;99.90;;;;;;5114857;28;20054;-84
2022/01/23 07:47:41;;;;;;;29.85;16.48;;;0.20;99.90;;;;;;5116921;28;20031;-84
2022/01/23 07:50:08;;;;;;;27.42;14.15;;;0.20;99.90;;;;;;5097600;28;20492;-84
2022/01/23 07:52:38;;;;;;;27.63;14.52;;;0.20;99.90;;;;;;5116132;28;20027;-83
2022/01/23 07:55:08;;;;;;;30.75;16.67;;;0.20;99.90;;;;;;5115864;28;20467;-83
2022/01/23 07:57:34;;;;;;;27.47;14.77;;;0.20;99.90;;;;;;5117435;28;20056;-83
2022/01/23 08:00:00;;;;;;;26.02;14.45;;;0.30;99.90;;;;;;5116946;28;20118;-83
2022/01/23 08:02:26;;;;;;;27.20;14.95;;;0.30;99.90;;;;;;5098000;28;20073;-82
2022/01/23 08:04:52;;;;;;;26.42;14.45;;;0.40;99.90;;;;;;5099433;28;20027;-82
2022/01/23 08:07:30;;;;;;;24.52;13.05;;;0.40;99.90;;;;;;5120671;28;20024;-82
2022/01/23 08:10:01;;;;;;;26.55;13.23;;;0.40;99.90;;;;;;5102129;28;20032;-82
2022/01/23 08:12:28;;;;;;;23.30;12.63;;;0.50;99.90;;;;;;5100965;28;20028;-83
2022/01/23 08:14:55;;;;;;;23.05;12.45;;;0.50;99.90;;;;;;5120041;28;20487;-83
2022/01/23 08:17:24;;;;;;;23.63;12.15;;;0.60;99.90;;;;;;5119686;28;20043;-85
2022/01/23 08:19:54;;;;;;;19.73;11.30;;;0.60;99.90;;;;;;5120501;28;20030;-85
2022/01/23 08:22:22;;;;;;;26.48;12.43;;;0.60;99.90;;;;;;5121052;28;20050;-85
2022/01/23 08:24:49;;;;;;;21.98;11.77;;;0.70;99.90;;;;;;5102041;28;20031;-85
2022/01/23 08:27:15;;;;;;;21.45;12.43;;;0.70;99.90;;;;;;5101917;28;20483;-85
2022/01/23 08:29:41;;;;;;;24.23;14.13;;;0.80;99.90;;;;;;5102047;28;20040;-85
2022/01/23 08:32:07;;;;;;;26.40;15.23;;;0.80;99.90;;;;;;5119984;28;20028;-85
2022/01/23 08:34:33;;;;;;;31.58;17.20;;;0.90;99.90;;;;;;5101191;28;20035;-85
2022/01/23 08:36:59;;;;;;;30.10;17.10;;;0.90;99.90;;;;;;5120056;28;20089;-84
2022/01/23 08:39:26;;;;;;;30.92;16.45;;;0.90;99.90;;;;;;5100943;28;20031;-84
2022/01/23 08:41:52;;;;;;;29.45;15.80;;;1.00;99.90;;;;;;5100856;28;20586;-84
2022/01/23 08:44:19;;;;;;;33.40;16.45;;;1.00;99.90;;;;;;5118887;28;20545;-84
2022/01/23 08:46:45;;;;;;;31.35;15.48;;;1.10;99.90;;;;;;5119017;28;20114;-84
2022/01/23 08:49:10;;;;;;;32.95;16.35;;;1.20;99.90;;;;;;5119573;28;20059;-84
2022/01/23 08:51:36;;;;;;;27.70;15.48;;;1.20;99.90;;;;;;5119473;28;20031;-84
2022/01/23 08:54:03;;;;;;;27.80;15.55;;;1.20;99.90;;;;;;5118667;28;20024;-84
2022/01/23 08:56:29;;;;;;;27.33;14.35;;;1.30;99.90;;;;;;5099971;28;20063;-84
2022/01/23 08:58:55;;;;;;;27.95;14.60;;;1.30;99.90;;;;;;5100609;28;20032;-84
2022/01/23 09:01:20;;;;;;;26.15;14.13;;;1.30;99.90;;;;;;5100803;28;20035;-83
2022/01/23 09:03:46;;;;;;;23.02;13.18;;;1.40;99.90;;;;;;5100403;28;20027;-83
2022/01/23 09:06:12;;;;;;;29.40;14.57;;;1.40;99.90;;;;;;5118522;28;20055;-83
2022/01/23 09:08:39;;;;;;;26.42;14.10;;;1.50;99.90;;;;;;5118252;28;20032;-83
2022/01/23 09:11:24;;;;;;;28.65;14.55;;;1.60;99.90;;;;;;5100752;28;20036;-83
2022/01/23 09:16:16;;;;;;;31.38;16.02;;;1.70;99.90;;;;;;5118966;28;20027;-83
2022/01/23 09:18:42;;;;;;;29.83;16.75;;;1.80;99.90;;;;;;5101002;28;20032;-83
2022/01/23 09:21:08;;;;;;;29.98;14.95;;;1.80;99.90;;;;;;5100251;28;20085;-83
2022/01/23 09:23:34;;;;;;;28.35;14.20;;;1.90;99.90;;;;;;5100446;28;20380;-83
2022/01/23 09:26:07;;;;;;;31.42;15.88;;;2.00;99.90;;;;;;5118735;28;20039;-83
2022/01/23 09:28:33;;;;;;;30.73;15.20;;;2.10;99.90;;;;;;5101160;28;20502;-83
2022/01/23 09:31:00;;;;;;;32.63;14.85;;;2.10;99.90;;;;;;5120016;28;20065;-84
2022/01/23 09:33:27;;;;;;;27.33;14.75;;;2.20;99.90;;;;;;5119875;28;20107;-84
2022/01/23 09:35:53;;;;;;;30.60;14.52;;;2.20;99.90;;;;;;5119626;28;20042;-84
2022/01/23 09:38:19;;;;;;;24.80;14.20;;;2.30;99.90;;;;;;5101246;28;20035;-84
2022/01/23 09:40:47;;;;;;;26.67;13.80;;;2.40;99.90;;;;;;5119689;28;20028;-84
2022/01/23 09:43:17;;;;;;;26.88;13.57;;;2.50;99.90;;;;;;5119583;28;20031;-84
2022/01/23 09:45:46;;;;;;;26.30;14.38;;;2.60;99.90;;;;;;5119629;28;20088;-84
2022/01/23 09:48:13;;;;;;;23.15;12.80;;;2.70;99.90;;;;;;5100719;28;20057;-84
2022/01/23 09:50:42;;;;;;;23.10;11.65;;;2.70;99.90;;;;;;5100907;28;20035;-84
2022/01/23 09:53:09;;;;;;;17.95;9.40;;;2.80;99.90;;;;;;5100649;28;20027;-84
2022/01/23 09:55:36;;;;;;;15.50;7.90;;;2.80;99.90;;;;;;5100474;28;20058;-84
2022/01/23 09:58:01;;;;;;;13.60;7.63;;;2.90;99.90;;;;;;5118926;28;20111;-83
2022/01/23 10:00:30;;;;;;;12.98;6.90;;;2.90;99.90;;;;;;5099459;28;20131;-83
2022/01/23 10:02:57;;;;;;;12.65;7.43;;;3.00;99.90;;;;;;5099773;28;20031;-85
2022/01/23 10:05:23;;;;;;;16.75;9.05;;;3.00;99.90;;;;;;5099157;28;20058;-86
2022/01/23 10:07:49;;;;;;;15.63;9.15;;;3.10;99.90;;;;;;5117716;28;20020;-85
2022/01/23 10:10:21;;;;;;;21.50;11.05;;;3.20;99.90;;;;;;5099950;28;20035;-86
2022/01/23 10:12:50;;;;;;;13.43;7.97;;;3.20;99.90;;;;;;5099567;28;20051;-86
2022/01/23 10:15:17;;;;;;;14.35;8.05;;;3.20;99.90;;;;;;5099477;28;20034;-86
2022/01/23 10:17:43;;;;;;;15.23;7.95;;;3.20;99.90;;;;;;5098026;28;20036;-86
2022/01/23 10:20:10;;;;;;;11.15;6.50;;;3.30;99.90;;;;;;5099034;28;20035;-86
2022/01/23 10:22:37;;;;;;;12.80;7.22;;;3.30;99.90;;;;;;5098042;28;20023;-86
2022/01/23 10:25:06;;;;;;;12.82;6.70;;;3.40;99.90;;;;;;5097964;28;20077;-86
2022/01/23 10:28:10;;;;;;;9.35;5.53;;;3.40;99.90;;;;;;5117852;28;20032;-86
2022/01/23 10:31:04;;;;;;;10.30;5.30;;;3.50;99.90;;;;;;5102199;28;20088;-85
2022/01/23 10:33:32;;;;;;;11.45;5.85;;;3.50;99.90;;;;;;5097994;28;20031;-86
2022/01/23 10:36:15;;;;;;;9.10;5.45;;;3.60;99.90;;;;;;5099833;28;20040;-86
2022/01/23 10:38:46;;;;;;;9.85;5.35;;;3.60;99.90;;;;;;5101756;28;20460;-86
2022/01/23 10:49:52;;;;;;;13.82;7.18;;;3.70;99.90;;;;;;5120837;28;20036;-85
2022/01/23 10:52:36;;;;;;;13.93;6.97;;;3.80;99.90;;;;;;5101661;28;20036;-84
2022/01/23 10:55:24;;;;;;;11.23;6.35;;;3.90;99.90;;;;;;5101279;28;20050;-84
2022/01/23 10:57:53;;;;;;;12.15;6.57;;;3.90;99.90;;;;;;5119900;28;20098;-84
2022/01/23 11:00:27;;;;;;;11.18;6.30;;;3.90;99.90;;;;;;5101065;28;20048;-84
2022/01/23 11:02:54;;;;;;;11.57;6.63;;;4.00;99.90;;;;;;5101578;28;20104;-85
2022/01/23 11:05:22;;;;;;;16.50;8.50;;;4.00;99.90;;;;;;5100983;28;20461;-84
2022/01/23 11:07:49;;;;;;;14.88;8.77;;;4.00;99.90;;;;;;5100046;28;20031;-84
2022/01/23 11:10:21;;;;;;;15.82;8.38;;;4.00;99.90;;;;;;5118216;28;20035;-84
2022/01/23 11:18:11;;;;;;;12.82;7.15;;;4.20;99.90;;;;;;5118013;28;20558;-84
2022/01/23 11:20:40;;;;;;;11.43;6.53;;;4.30;99.90;;;;;;5116338;28;20422;-84
2022/01/23 11:23:24;;;;;;;13.63;7.13;;;4.30;99.90;;;;;;5115557;28;20115;-84
2022/01/23 11:25:52;;;;;;;13.63;6.85;;;4.30;99.90;;;;;;5115841;28;20023;-85
2022/01/23 11:28:39;;;;;;;14.02;7.60;;;4.20;99.90;;;;;;5097383;28;20483;-84
2022/01/23 11:31:08;;;;;;;13.75;7.30;;;4.10;99.90;;;;;;5115357;28;20398;-84
2022/01/23 11:33:34;;;;;;;29.23;11.95;;;3.90;99.90;;;;;;5097956;28;20514;-84
2022/01/23 11:36:01;;;;;;;23.08;11.88;;;3.80;99.90;;;;;;5117134;28;20039;-84
2022/01/23 11:38:27;;;;;;;20.67;10.05;;;3.70;99.90;;;;;;5117022;28;20031;-84
2022/01/23 11:54:47;;;;;;;15.82;9.50;;;3.70;99.90;;;;;;5120945;28;20113;-85
2022/01/23 11:57:36;;;;;;;18.98;9.65;;;3.70;99.90;;;;;;5120137;28;20429;-85
2022/01/23 12:00:18;;;;;;;21.73;10.60;;;3.70;99.90;;;;;;5100788;28;20035;-85
2022/01/23 12:03:04;;;;;;;18.10;9.32;;;3.80;99.90;;;;;;5101248;28;20509;-84
2022/01/23 12:05:30;;;;;;;16.75;8.82;;;3.90;99.90;;;;;;5100600;28;20032;-84
2022/01/23 12:08:29;;;;;;;19.08;10.07;;;4.00;99.90;;;;;;5119100;28;20100;-84
2022/01/23 12:11:43;;;;;;;16.55;9.50;;;4.00;99.90;;;;;;5100713;28;20035;-83
2022/01/23 12:16:53;;;;;;;17.02;9.32;;;4.10;99.90;;;;;;5119003;28;20031;-83
2022/01/23 12:19:19;;;;;;;19.52;9.68;;;4.10;99.90;;;;;;5119410;28;20027;-83
2022/01/23 12:21:46;;;;;;;18.05;9.63;;;4.10;99.90;;;;;;5118796;28;20484;-83
2022/01/23 12:24:15;;;;;;;17.40;9.30;;;4.10;99.90;;;;;;5118393;28;20113;-82
2022/01/23 12:26:42;;;;;;;16.00;8.38;;;4.10;99.90;;;;;;5118158;28;20024;-82
2022/01/23 12:29:15;;;;;;;16.60;9.35;;;4.10;99.90;;;;;;5118514;28;20034;-83
2022/01/23 12:31:42;;;;;;;20.52;13.07;;;4.20;99.90;;;;;;5099674;28;20032;-83
2022/01/23 12:34:09;;;;;;;19.88;11.50;;;4.20;99.90;;;;;;5117903;28;20031;-82
2022/01/23 12:36:37;;;;;;;19.08;9.18;;;4.20;99.90;;;;;;5099733;28;20036;-83
2022/01/23 12:39:06;;;;;;;15.02;9.30;;;4.20;99.90;;;;;;5118170;28;20023;-82
2022/01/23 12:41:34;;;;;;;17.77;9.75;;;4.10;99.90;;;;;;5118002;28;20028;-82
2022/01/23 12:44:04;;;;;;;29.27;16.55;;;4.10;99.90;;;;;;5100336;28;20039;-81
2022/01/23 12:46:34;;;;;;;16.73;9.45;;;4.00;99.90;;;;;;5099466;28;20028;-81
2022/01/23 12:49:30;;;;;;;14.13;8.33;;;4.00;99.90;;;;;;5117696;28;20050;-81
2022/01/23 12:52:08;;;;;;;15.23;8.35;;;4.00;99.90;;;;;;5099221;28;20032;-81
2022/01/23 12:54:46;;;;;;;15.95;9.45;;;3.90;99.90;;;;;;5099563;28;20031;-82
2022/01/23 12:57:22;;;;;;;16.42;8.88;;;3.80;99.90;;;;;;5118123;28;20097;-82
2022/01/23 12:59:53;;;;;;;18.38;9.60;;;3.90;99.90;;;;;;5099432;28;20032;-82
2022/01/23 13:02:20;;;;;;;;;;;3.90;99.90;;;;;;5117650;28;20039;-82
2022/01/23 13:04:49;;;;;;;17.52;9.02;;;3.90;99.90;;;;;;5117909;28;19903;-82
2022/01/23 13:07:52;;;;;;;12.88;7.82;;;3.80;99.90;;;;;;5099223;28;20500;-82
2022/01/23 13:13:49;;;;;;;13.60;7.63;;;3.70;99.90;;;;;;5071993;28;20545;-83
2022/01/23 13:32:15;;;;;;;13.80;7.70;;;3.60;99.90;;;;;;5118560;28;20139;-84
2022/01/23 13:34:51;;;;;;;14.32;8.13;;;3.60;99.90;;;;;;5116927;28;20039;-84
2022/01/23 13:37:28;;;;;;;13.60;8.23;;;3.60;99.90;;;;;;5099062;28;20070;-83
2022/01/23 13:40:02;;;;;;;13.68;7.90;;;3.60;99.90;;;;;;5098681;28;20282;-85
2022/01/23 13:59:17;;;;;;;10.75;6.78;;;3.20;99.90;;;;;;5116805;28;20039;-85
2022/01/23 14:04:41;;;;;;;11.55;6.97;;;3.20;99.90;;;;;;5112816;28;20254;-86
2022/01/23 14:07:07;;;;;;;12.25;7.05;;;3.20;99.90;;;;;;5098050;28;20028;-86
2022/01/23 14:09:43;;;;;;;13.57;7.15;;;3.20;99.90;;;;;;5097888;28;20027;-86
2022/01/23 14:12:14;;;;;;;12.07;7.15;;;3.20;99.90;;;;;;5116053;28;20027;-86
2022/01/23 14:15:05;;;;;;;12.55;7.32;;;3.20;99.90;;;;;;5097656;28;20140;-86
2022/01/23 14:17:36;;;;;;;12.40;7.45;;;3.10;99.90;;;;;;5097645;28;20046;-86
2022/01/23 14:20:04;;;;;;;11.00;6.82;;;3.10;99.90;;;;;;5098641;28;20093;-86
2022/01/23 14:22:32;;;;;;;11.13;6.47;;;3.10;99.90;;;;;;5116172;28;20024;-86
2022/01/23 14:25:33;;;;;;;10.75;6.05;;;3.10;99.90;;;;;;5116453;28;20051;-86
2022/01/23 14:28:10;;;;;;;10.02;6.40;;;3.10;99.90;;;;;;5092837;28;20058;-86
2022/01/23 14:30:53;;;;;;;10.63;6.55;;;3.10;99.90;;;;;;5116327;28;20038;-86
2022/01/23 14:33:37;;;;;;;11.63;6.65;;;3.10;99.90;;;;;;5098280;28;20065;-86
2022/01/23 14:36:16;;;;;;;12.43;7.22;;;3.10;99.90;;;;;;5098251;28;20043;-86
2022/01/23 14:38:57;;;;;;;12.75;7.22;;;3.10;99.90;;;;;;5116409;28;20031;-86
2022/01/23 14:41:25;;;;;;;14.10;8.35;;;3.10;99.90;;;;;;5097834;28;20031;-86
2022/01/23 14:43:51;;;;;;;15.13;9.10;;;3.10;99.90;;;;;;5097162;28;20122;-86
2022/01/23 14:46:17;;;;;;;16.35;9.88;;;3.00;99.90;;;;;;5115964;28;20031;-86
2022/01/23 14:48:47;;;;;;;14.38;8.80;;;3.00;99.90;;;;;;5116081;28;20020;-86
2022/01/23 14:51:21;;;;;;;11.38;6.55;;;3.00;99.90;;;;;;5116387;28;20471;-86
2022/01/23 14:53:48;;;;;;;14.68;8.93;;;2.90;99.90;;;;;;5116284;28;20027;-86
2022/01/23 14:56:14;;;;;;;14.27;8.73;;;2.90;99.90;;;;;;5098120;28;20032;-86
2022/01/23 14:58:42;;;;;;;13.98;8.45;;;2.90;99.90;;;;;;5116754;28;20023;-86
2022/01/23 15:01:12;;;;;;;13.85;8.45;;;2.90;99.90;;;;;;5098183;28;20032;-86
2022/01/23 15:03:40;;;;;;;13.27;8.40;;;2.90;99.90;;;;;;5097916;28;20463;-86
2022/01/23 15:06:06;;;;;;;17.73;10.18;;;2.90;99.90;;;;;;5098018;28;20055;-86
2022/01/23 15:08:32;;;;;;;26.65;15.15;;;2.90;99.90;;;;;;5116427;28;20387;-86
2022/01/23 15:11:00;;;;;;;21.15;13.13;;;2.90;99.90;;;;;;5117137;28;20524;-86
2022/01/23 15:13:28;;;;;;;20.42;11.90;;;2.80;99.90;;;;;;5097799;28;20055;-86
2022/01/23 15:15:55;;;;;;;19.13;11.07;;;2.80;99.90;;;;;;5098107;28;20031;-86
2022/01/23 15:18:21;;;;;;;17.88;10.00;;;2.80;99.90;;;;;;5097822;28;20036;-86
2022/01/23 15:20:48;;;;;;;17.15;10.60;;;2.80;99.90;;;;;;5116523;28;20030;-86
2022/01/23 15:23:15;;;;;;;19.30;10.95;;;2.70;99.90;;;;;;5097946;28;20122;-86
2022/01/23 15:25:43;;;;;;;20.50;11.45;;;2.70;99.90;;;;;;5116428;28;20086;-86
2022/01/23 15:28:09;;;;;;;19.05;10.85;;;2.70;99.90;;;;;;5097882;28;20028;-87
2022/01/23 15:30:38;;;;;;;18.42;10.35;;;2.70;99.90;;;;;;5097617;28;20044;-87
2022/01/23 15:33:09;;;;;;;18.90;9.82;;;2.60;99.90;;;;;;5097527;28;20032;-86
2022/01/23 15:35:46;;;;;;;16.73;9.93;;;2.60;99.90;;;;;;5099497;28;20036;-86
2022/01/23 15:38:13;;;;;;;19.40;10.10;;;2.50;99.90;;;;;;5098656;28;20119;-86
2022/01/23 15:40:39;;;;;;;15.75;8.48;;;2.50;99.90;;;;;;5098249;28;20035;-86
2022/01/23 15:43:05;;;;;;;14.05;8.13;;;2.40;99.90;;;;;;5098118;28;20024;-86
2022/01/23 15:45:31;;;;;;;15.68;7.80;;;2.30;99.90;;;;;;5116615;28;20514;-86
2022/01/23 15:47:56;;;;;;;12.70;7.22;;;2.30;99.90;;;;;;5117681;28;20042;-84
2022/01/23 15:50:22;;;;;;;11.73;6.95;;;2.20;99.90;;;;;;5099348;28;20040;-83
2022/01/23 15:52:49;;;;;;;10.85;6.30;;;2.20;99.90;;;;;;5098343;28;20035;-83
2022/01/23 15:55:16;;;;;;;13.52;8.20;;;2.10;99.90;;;;;;5117227;28;20040;-83
2022/01/23 15:57:42;;;;;;;18.65;10.68;;;2.00;99.90;;;;;;5098430;28;20035;-83
2022/01/23 16:00:11;;;;;;;19.05;10.57;;;1.90;99.90;;;;;;5098104;28;20485;-82
2022/01/23 16:02:37;;;;;;;21.30;11.43;;;1.80;99.90;;;;;;5116773;28;20042;-83
2022/01/23 16:05:03;;;;;;;20.35;11.63;;;1.80;99.90;;;;;;5098860;28;20032;-83
2022/01/23 16:07:29;;;;;;;21.58;11.18;;;1.70;99.90;;;;;;5098978;28;20484;-82
2022/01/23 16:09:55;;;;;;;21.70;11.65;;;1.70;99.90;;;;;;5117165;28;20038;-82
2022/01/23 16:12:21;;;;;;;20.02;11.30;;;1.60;99.90;;;;;;5098669;28;20622;-82
2022/01/23 16:14:46;;;;;;;30.48;16.08;;;1.60;99.90;;;;;;5099478;28;20131;-82
2022/01/23 16:17:12;;;;;;;31.83;17.30;;;1.50;99.90;;;;;;5097707;28;20028;-83
2022/01/23 16:19:38;;;;;;;28.75;14.88;;;1.40;99.90;;;;;;5097516;28;20510;-82
2022/01/23 16:22:05;;;;;;;27.10;14.43;;;1.40;99.90;;;;;;5097221;28;20032;-83
2022/01/23 16:24:31;;;;;;;22.75;13.07;;;1.30;99.90;;;;;;5097502;28;20039;-84
2022/01/23 16:26:58;;;;;;;23.15;12.63;;;1.30;99.90;;;;;;5119747;28;20019;-83